createdAt,value
2018-02-15T00:01:35.813Z,0.20
2018-02-15T00:04:01.578Z,0.25
2018-02-15T00:06:27.344Z,0.40
2018-02-15T00:08:53.097Z,0.36
2018-02-15T00:11:19.101Z,0.35
2018-02-15T00:13:45.365Z,0.38
2018-02-15T00:16:11.152Z,0.43
2018-02-15T00:18:37.333Z,0.45
2018-02-15T00:21:03.127Z,0.41
2018-02-15T00:23:29.546Z,0.39
2018-02-15T00:25:55.400Z,0.36
2018-02-15T00:28:21.657Z,0.40
2018-02-15T00:30:47.440Z,0.37
2018-02-15T00:33:13.187Z,0.41
2018-02-15T00:35:39.630Z,0.43
2018-02-15T00:38:05.391Z,0.36
2018-02-15T00:40:31.151Z,0.35
2018-02-15T00:42:57.110Z,0.49
2018-02-15T00:45:22.932Z,0.44
2018-02-15T00:47:48.720Z,0.43
2018-02-15T00:50:14.476Z,0.38
2018-02-15T00:52:40.231Z,0.38
2018-02-15T00:55:05.981Z,0.37
2018-02-15T00:57:31.751Z,0.34
2018-02-15T00:59:57.506Z,0.32
2018-02-15T01:02:23.267Z,0.33
2018-02-15T01:04:49.035Z,0.33
2018-02-15T01:07:14.795Z,0.34
2018-02-15T01:09:40.555Z,0.33
2018-02-15T01:12:06.311Z,0.33
2018-02-15T01:14:32.067Z,0.31
2018-02-15T01:16:57.827Z,0.33
2018-02-15T01:19:23.577Z,0.35
2018-02-15T01:21:49.343Z,0.35
2018-02-15T01:24:15.115Z,0.33
2018-02-15T01:26:40.886Z,0.36
2018-02-15T01:29:06.650Z,0.33
2018-02-15T01:31:32.419Z,0.39
2018-02-15T01:33:58.189Z,0.41
2018-02-15T01:36:23.956Z,0.43
2018-02-15T01:38:49.707Z,0.39
2018-02-15T01:41:15.461Z,0.39
2018-02-15T01:43:41.208Z,0.44
2018-02-15T01:46:06.988Z,0.39
2018-02-15T01:48:32.733Z,0.41
2018-02-15T01:50:58.489Z,0.47
2018-02-15T01:53:24.246Z,0.47
2018-02-15T01:55:50.008Z,0.45
2018-02-15T01:58:15.779Z,0.39
2018-02-15T02:00:41.552Z,0.47
2018-02-15T02:03:07.320Z,0.47
2018-02-15T02:05:33.091Z,0.48
2018-02-15T02:07:58.848Z,0.47
2018-02-15T02:10:24.615Z,0.51
2018-02-15T02:12:50.386Z,0.46
2018-02-15T02:15:16.147Z,0.46
2018-02-15T02:17:41.936Z,0.48
2018-02-15T02:20:07.689Z,0.45
2018-02-15T02:22:33.458Z,0.45
2018-02-15T02:24:59.222Z,0.45
2018-02-15T02:27:24.976Z,0.43
2018-02-15T02:29:50.747Z,0.44
2018-02-15T02:32:16.505Z,0.52
2018-02-15T02:34:42.270Z,0.47
2018-02-15T02:37:08.032Z,0.45
2018-02-15T02:39:33.813Z,0.48
2018-02-15T02:41:59.584Z,0.49
2018-02-15T02:44:25.347Z,0.53
2018-02-15T02:46:51.100Z,0.51
2018-02-15T02:49:16.867Z,0.52
2018-02-15T02:51:42.622Z,0.50
2018-02-15T02:54:08.372Z,0.47
2018-02-15T02:56:34.130Z,0.55
2018-02-15T02:58:59.909Z,0.53
2018-02-15T03:01:25.670Z,0.52
2018-02-15T03:03:51.419Z,0.50
2018-02-15T03:06:17.173Z,0.57
2018-02-15T03:08:42.926Z,0.55
2018-02-15T03:11:08.692Z,0.61
2018-02-15T03:13:34.447Z,0.58
2018-02-15T03:16:00.218Z,0.55
2018-02-15T03:18:25.962Z,0.55
2018-02-15T03:20:51.739Z,0.56
2018-02-15T03:23:17.493Z,0.55
2018-02-15T03:25:43.255Z,0.52
2018-02-15T03:28:09.007Z,0.49
2018-02-15T03:30:34.771Z,0.58
2018-02-15T03:33:00.511Z,0.59
2018-02-15T03:35:26.274Z,0.57
2018-02-15T03:37:52.023Z,0.54
2018-02-15T03:40:17.799Z,0.54
2018-02-15T03:42:43.551Z,0.53
2018-02-15T03:45:09.378Z,0.56
2018-02-15T03:47:35.126Z,0.50
2018-02-15T03:50:00.887Z,0.54
2018-02-15T03:52:26.642Z,0.52
2018-02-15T03:54:52.423Z,0.50
2018-02-15T03:57:18.173Z,0.50
2018-02-15T03:59:43.919Z,0.55
2018-02-15T04:02:09.683Z,0.58
2018-02-15T04:04:35.431Z,0.52
2018-02-15T04:07:01.195Z,0.54
2018-02-15T04:09:26.948Z,0.49
2018-02-15T04:11:52.710Z,0.50
2018-02-15T04:14:18.450Z,0.46
2018-02-15T04:16:44.211Z,0.49
2018-02-15T04:19:09.958Z,0.50
2018-02-15T04:21:35.722Z,0.55
2018-02-15T04:24:01.467Z,0.51
2018-02-15T04:26:27.234Z,0.57
2018-02-15T04:28:52.986Z,0.52
2018-02-15T04:31:18.744Z,0.45
2018-02-15T04:33:44.547Z,0.49
2018-02-15T04:36:10.312Z,0.49
2018-02-15T04:38:36.077Z,0.51
2018-02-15T04:41:01.872Z,0.45
2018-02-15T04:43:27.639Z,0.48
2018-02-15T04:45:53.395Z,0.47
2018-02-15T04:48:19.166Z,0.48
2018-02-15T04:50:44.915Z,0.46
2018-02-15T04:53:10.687Z,0.44
2018-02-15T04:55:36.453Z,0.39
2018-02-15T04:58:02.214Z,0.40
2018-02-15T05:00:27.975Z,0.39
2018-02-15T05:02:53.753Z,0.36
2018-02-15T05:05:19.507Z,0.33
2018-02-15T05:07:45.272Z,0.33
2018-02-15T05:10:11.030Z,0.33
2018-02-15T05:12:36.796Z,0.36
2018-02-15T05:15:02.567Z,0.34
2018-02-15T05:17:28.335Z,0.30
2018-02-15T05:19:54.078Z,0.31
2018-02-15T05:22:19.846Z,0.35
2018-02-15T05:24:45.610Z,0.35
2018-02-15T05:27:11.366Z,0.31
2018-02-15T05:29:37.130Z,0.32
2018-02-15T05:32:02.907Z,0.28
2018-02-15T05:34:28.654Z,0.33
2018-02-15T05:36:54.410Z,0.32
2018-02-15T05:39:20.175Z,0.32
2018-02-15T05:41:45.931Z,0.37
2018-02-15T05:44:11.699Z,0.34
2018-02-15T05:46:37.452Z,0.31
2018-02-15T05:49:03.223Z,0.24
2018-02-15T05:51:28.971Z,0.21
2018-02-15T05:53:54.739Z,0.25
2018-02-15T05:56:20.533Z,0.32
2018-02-15T05:58:46.279Z,0.27
2018-02-15T06:01:12.040Z,0.31
2018-02-15T06:03:37.807Z,0.28
2018-02-15T06:06:03.561Z,0.22
2018-02-15T06:08:29.327Z,0.19
2018-02-15T06:10:55.084Z,0.18
2018-02-15T06:13:20.850Z,0.18
2018-02-15T06:15:46.607Z,0.16
2018-02-15T06:18:12.364Z,0.19
2018-02-15T06:20:38.123Z,0.14
2018-02-15T06:23:03.878Z,0.15
2018-02-15T06:25:29.637Z,0.13
2018-02-15T06:27:55.388Z,0.13
2018-02-15T06:30:21.154Z,0.15
2018-02-15T06:32:46.915Z,0.13
2018-02-15T06:35:12.666Z,0.14
2018-02-15T06:37:38.417Z,0.13
2018-02-15T06:40:04.184Z,0.09
2018-02-15T06:42:29.942Z,0.11
2018-02-15T06:44:55.714Z,0.08
2018-02-15T06:47:21.467Z,0.15
2018-02-15T06:49:47.230Z,0.12
2018-02-15T06:52:12.970Z,0.13
2018-02-15T06:54:38.750Z,0.11
2018-02-15T06:57:04.494Z,0.12
2018-02-15T06:59:30.258Z,0.10
2018-02-15T07:01:56.011Z,0.12
2018-02-15T07:04:21.779Z,0.15
2018-02-15T07:06:47.522Z,0.14
2018-02-15T07:09:13.281Z,0.10
2018-02-15T07:11:39.038Z,0.11
2018-02-15T07:14:04.795Z,0.13
2018-02-15T07:16:30.564Z,0.14
2018-02-15T07:18:56.326Z,0.16
2018-02-15T07:21:22.098Z,0.16
2018-02-15T07:23:47.852Z,0.18
2018-02-15T07:26:13.622Z,0.16
2018-02-15T07:28:39.382Z,0.16
2018-02-15T07:31:05.146Z,0.17
2018-02-15T07:33:30.907Z,0.17
2018-02-15T07:35:56.679Z,0.16
2018-02-15T07:38:22.431Z,0.18
2018-02-15T07:40:48.213Z,0.16
2018-02-15T07:43:13.956Z,0.19
2018-02-15T07:45:39.722Z,0.20
2018-02-15T07:48:05.483Z,0.26
2018-02-15T07:50:31.268Z,0.23
2018-02-15T07:52:57.030Z,0.24
2018-02-15T07:55:22.819Z,0.24
2018-02-15T07:57:48.585Z,0.24
2018-02-15T08:00:14.331Z,0.24
2018-02-15T08:02:40.094Z,0.27
2018-02-15T08:05:05.849Z,0.26
2018-02-15T08:07:31.630Z,0.32
2018-02-15T08:09:57.374Z,0.39
2018-02-15T08:12:23.147Z,0.43
2018-02-15T08:14:48.901Z,0.48
2018-02-15T08:17:14.682Z,0.46
2018-02-15T08:19:40.466Z,0.47
2018-02-15T08:22:06.263Z,0.50
2018-02-15T08:24:32.034Z,0.51
2018-02-15T08:26:57.807Z,0.52
2018-02-15T08:29:23.566Z,0.54
2018-02-15T08:31:49.346Z,0.56
2018-02-15T08:34:15.135Z,0.66
2018-02-15T08:36:40.881Z,0.62
2018-02-15T08:39:06.646Z,0.59
2018-02-15T08:41:32.408Z,0.66
2018-02-15T08:43:58.174Z,0.62
2018-02-15T08:46:23.917Z,0.64
2018-02-15T08:48:49.679Z,0.68
2018-02-15T08:51:15.430Z,0.63
2018-02-15T08:53:41.187Z,0.61
2018-02-15T08:56:06.938Z,0.60
2018-02-15T08:58:32.706Z,0.65
2018-02-15T09:00:58.453Z,0.69
2018-02-15T09:03:24.223Z,0.74
2018-02-15T09:05:49.974Z,0.70
2018-02-15T09:08:15.742Z,0.65
2018-02-15T09:10:41.485Z,0.67
2018-02-15T09:13:07.254Z,0.71
2018-02-15T09:15:32.998Z,0.74
2018-02-15T09:17:58.764Z,0.77
2018-02-15T09:20:24.521Z,0.76
2018-02-15T09:22:50.281Z,0.76
2018-02-15T09:25:16.038Z,0.82
2018-02-15T09:27:41.787Z,0.83
2018-02-15T09:30:07.565Z,0.85
2018-02-15T09:32:33.318Z,0.84
2018-02-15T09:34:59.093Z,0.89
2018-02-15T09:37:24.849Z,0.91
2018-02-15T09:39:50.623Z,0.97
2018-02-15T09:42:16.382Z,0.97
2018-02-15T09:44:42.143Z,1.07
2018-02-15T09:47:07.898Z,1.09
2018-02-15T09:49:33.649Z,1.10
2018-02-15T09:51:59.403Z,1.23
2018-02-15T09:54:25.214Z,1.30
2018-02-15T09:56:50.947Z,1.33
2018-02-15T09:59:16.719Z,1.39
2018-02-15T10:01:42.458Z,1.36
2018-02-15T10:04:08.234Z,1.37
2018-02-15T10:06:33.994Z,1.31
2018-02-15T10:08:59.750Z,1.35
2018-02-15T10:11:25.507Z,1.31
2018-02-15T10:13:51.293Z,1.36
2018-02-15T10:16:17.051Z,1.44
2018-02-15T10:18:42.808Z,1.48
2018-02-15T10:21:08.582Z,1.38
2018-02-15T10:23:34.334Z,1.44
2018-02-15T10:26:00.098Z,1.39
2018-02-15T10:28:25.862Z,1.38
2018-02-15T10:30:51.623Z,1.35
2018-02-15T10:33:17.366Z,1.37
2018-02-15T10:35:43.125Z,1.45
2018-02-15T10:38:08.886Z,1.52
2018-02-15T10:40:34.657Z,1.60
2018-02-15T10:43:00.402Z,1.64
2018-02-15T10:45:26.166Z,1.62
2018-02-15T10:47:51.923Z,1.66
2018-02-15T10:50:17.688Z,1.59
2018-02-15T10:52:43.447Z,1.64
2018-02-15T10:55:09.220Z,1.56
2018-02-15T10:57:34.999Z,1.44
2018-02-15T11:00:00.755Z,1.28
2018-02-15T11:02:26.534Z,1.17
2018-02-15T11:04:58.563Z,1.05
2018-02-15T11:07:24.362Z,1.03
2018-02-15T11:09:50.083Z,1.07
2018-02-15T11:12:15.855Z,1.06
2018-02-15T11:14:41.610Z,0.96
2018-02-15T11:17:07.396Z,0.58
2018-02-15T11:19:33.151Z,0.40
2018-02-15T11:21:58.922Z,0.38
2018-02-15T11:24:24.684Z,0.43
2018-02-15T11:26:50.447Z,0.58
2018-02-15T11:29:16.217Z,0.59
2018-02-15T11:31:42.090Z,0.64
2018-02-15T11:34:07.750Z,0.69
2018-02-15T11:36:33.557Z,0.67
2018-02-15T11:38:59.342Z,0.69
2018-02-15T11:41:25.097Z,0.61
2018-02-15T11:43:50.867Z,0.57
2018-02-15T11:46:16.639Z,0.60
2018-02-15T11:48:42.404Z,0.47
2018-02-15T11:51:08.359Z,0.53
2018-02-15T11:53:34.182Z,0.54
2018-02-15T11:56:02.100Z,0.62
2018-02-15T11:58:27.866Z,0.70
2018-02-15T12:00:53.627Z,0.67
2018-02-15T12:03:19.399Z,0.62
2018-02-15T12:05:45.159Z,0.64
2018-02-15T12:08:10.928Z,0.67
2018-02-15T12:10:36.714Z,0.72
2018-02-15T12:13:02.499Z,0.86
2018-02-15T12:15:28.266Z,0.82
2018-02-15T12:17:54.029Z,0.79
2018-02-15T12:20:19.774Z,0.80
2018-02-15T12:22:45.555Z,0.84
2018-02-15T12:25:11.308Z,0.87
2018-02-15T12:27:37.079Z,0.88
2018-02-15T12:30:02.836Z,0.90
2018-02-15T12:32:28.618Z,0.92
2018-02-15T12:34:54.371Z,0.97
2018-02-15T12:37:20.126Z,1.01
2018-02-15T12:39:45.894Z,0.96
2018-02-15T12:42:11.643Z,0.92
2018-02-15T12:44:37.410Z,0.92
2018-02-15T12:47:03.171Z,0.95
2018-02-15T12:49:28.946Z,0.92
2018-02-15T12:51:54.738Z,0.89
2018-02-15T12:54:20.462Z,0.91
2018-02-15T12:56:46.233Z,0.93
2018-02-15T12:59:12.011Z,0.90
2018-02-15T13:01:37.783Z,0.87
2018-02-15T13:04:03.554Z,0.87
2018-02-15T13:06:29.306Z,0.86
2018-02-15T13:08:55.070Z,0.88
2018-02-15T13:11:20.830Z,0.87
2018-02-15T13:13:46.707Z,0.87
2018-02-15T13:16:24.962Z,0.90
2018-02-15T13:19:03.242Z,0.93
2018-02-15T13:21:29.021Z,0.86
2018-02-15T13:23:54.782Z,0.84
2018-02-15T13:26:20.539Z,0.90
2018-02-15T13:28:46.311Z,0.87
2018-02-15T13:31:12.068Z,0.89
2018-02-15T13:33:38.327Z,0.92
2018-02-15T13:36:04.114Z,0.95
2018-02-15T13:38:29.890Z,0.95
2018-02-15T13:40:55.662Z,0.93
2018-02-15T13:43:21.428Z,0.94
2018-02-15T13:45:47.203Z,0.92
2018-02-15T13:48:12.955Z,0.93
2018-02-15T13:50:38.725Z,0.96
2018-02-15T13:53:04.488Z,0.97
2018-02-15T13:55:30.262Z,0.97
2018-02-15T13:57:56.024Z,1.00
2018-02-15T14:00:21.799Z,1.03
2018-02-15T14:02:47.553Z,1.04
2018-02-15T14:05:13.321Z,1.02
2018-02-15T14:07:39.079Z,1.02
2018-02-15T14:10:04.848Z,1.02
2018-02-15T14:12:30.604Z,0.98
2018-02-15T14:14:56.383Z,1.00
2018-02-15T14:17:22.162Z,1.00
2018-02-15T14:19:47.937Z,1.01
2018-02-15T14:24:46.110Z,0.97
2018-02-15T14:27:11.866Z,0.93
2018-02-15T14:29:37.635Z,0.92
2018-02-15T14:32:03.404Z,0.90
2018-02-15T14:34:29.167Z,0.89
2018-02-15T14:36:54.950Z,0.86
2018-02-15T14:39:20.694Z,0.85
2018-02-15T14:41:46.459Z,0.86
2018-02-15T14:44:12.206Z,0.85
2018-02-15T14:46:37.979Z,0.86
2018-02-15T14:49:03.736Z,0.87
2018-02-15T14:51:29.503Z,0.85
2018-02-15T14:53:55.255Z,0.84
2018-02-15T14:56:21.019Z,0.82
2018-02-15T14:58:46.771Z,0.84
2018-02-15T15:01:12.544Z,0.81
2018-02-15T15:03:38.290Z,0.84
2018-02-15T15:06:04.060Z,0.83
2018-02-15T15:08:29.807Z,0.84
2018-02-15T15:10:55.588Z,0.82
2018-02-15T15:13:21.337Z,0.84
2018-02-15T15:15:47.069Z,0.86
2018-02-15T15:18:12.818Z,0.88
2018-02-15T15:20:38.586Z,0.87
2018-02-15T15:23:05.146Z,0.89
2018-02-15T15:25:30.896Z,0.93
2018-02-15T15:27:56.655Z,0.94
2018-02-15T15:30:22.410Z,0.91
2018-02-15T15:32:48.178Z,0.94
2018-02-15T15:35:13.927Z,0.95
2018-02-15T15:37:39.690Z,0.98
2018-02-15T15:40:05.450Z,0.98
2018-02-15T15:42:31.214Z,0.95
2018-02-15T15:44:56.975Z,0.97
2018-02-15T15:47:22.754Z,0.97
2018-02-15T15:49:48.515Z,0.97
2018-02-15T15:52:14.287Z,0.98
2018-02-15T15:54:40.058Z,0.99
2018-02-15T15:57:05.818Z,1.00
2018-02-15T15:59:31.579Z,1.00
2018-02-15T16:01:57.371Z,0.98
2018-02-15T16:04:23.110Z,0.96
2018-02-15T16:06:48.858Z,1.00
2018-02-15T16:09:14.656Z,1.00
2018-02-15T16:11:40.423Z,1.01
2018-02-15T16:14:06.191Z,0.94
2018-02-15T16:16:31.940Z,0.94
2018-02-15T16:18:57.702Z,0.94
2018-02-15T16:21:23.462Z,0.90
2018-02-15T16:23:49.232Z,0.96
2018-02-15T16:26:14.981Z,0.89
2018-02-15T16:28:40.754Z,0.86
2018-02-15T16:31:06.498Z,0.91
2018-02-15T16:33:32.252Z,0.90
2018-02-15T16:35:58.037Z,0.90
2018-02-15T16:38:23.840Z,0.86
2018-02-15T16:40:49.595Z,0.86
2018-02-15T16:43:15.366Z,0.88
2018-02-15T16:45:41.105Z,0.86
2018-02-15T16:48:06.858Z,0.88
2018-02-15T16:50:32.614Z,0.89
2018-02-15T16:52:58.383Z,0.90
2018-02-15T16:55:24.153Z,0.90
2018-02-15T16:57:49.909Z,0.91
2018-02-15T17:00:15.675Z,0.93
2018-02-15T17:02:41.449Z,0.94
2018-02-15T17:05:07.217Z,0.94
2018-02-15T17:07:32.971Z,0.93
2018-02-15T17:09:58.737Z,0.95
2018-02-15T17:12:24.487Z,0.96
2018-02-15T17:14:50.262Z,0.96
2018-02-15T17:17:16.013Z,0.95
2018-02-15T17:19:41.769Z,0.95
2018-02-15T17:22:07.525Z,0.99
2018-02-15T17:24:33.293Z,0.95
2018-02-15T17:26:59.046Z,0.98
2018-02-15T17:29:24.810Z,0.98
2018-02-15T17:31:50.569Z,1.00
2018-02-15T17:34:16.327Z,0.92
2018-02-15T17:36:42.086Z,0.92
2018-02-15T17:39:07.859Z,0.94
2018-02-15T17:41:33.604Z,0.98
2018-02-15T17:43:59.390Z,0.92
2018-02-15T17:46:25.151Z,0.94
2018-02-15T17:48:50.923Z,0.97
2018-02-15T17:51:16.698Z,0.91
2018-02-15T17:53:42.463Z,0.90
2018-02-15T17:56:08.239Z,0.89
2018-02-15T17:58:33.993Z,0.85
2018-02-15T18:00:59.780Z,0.82
2018-02-15T18:03:25.535Z,0.81
2018-02-15T18:05:51.300Z,0.79
2018-02-15T18:08:17.058Z,0.77
2018-02-15T18:10:42.824Z,0.78
2018-02-15T18:13:08.594Z,0.79
2018-02-15T18:15:34.351Z,0.80
2018-02-15T18:18:00.096Z,0.79
2018-02-15T18:20:25.862Z,0.80
2018-02-15T18:22:51.619Z,0.81
2018-02-15T18:25:17.386Z,0.81
2018-02-15T18:27:43.147Z,0.82
2018-02-15T18:30:08.926Z,0.85
2018-02-15T18:32:34.677Z,0.84
2018-02-15T18:35:00.434Z,0.84
2018-02-15T18:37:26.224Z,0.86
2018-02-15T18:39:51.987Z,0.88
2018-02-15T18:42:17.754Z,0.87
2018-02-15T18:44:43.527Z,0.90
2018-02-15T18:47:09.309Z,0.92
2018-02-15T18:49:35.063Z,0.90
2018-02-15T18:52:00.846Z,0.93
2018-02-15T18:54:26.614Z,0.94
2018-02-15T18:56:52.383Z,0.97
2018-02-15T18:59:18.139Z,0.97
2018-02-15T19:01:43.923Z,0.98
2018-02-15T19:04:09.682Z,1.02
2018-02-15T19:06:35.450Z,1.02
2018-02-15T19:09:01.207Z,1.01
2018-02-15T19:11:26.998Z,1.04
2018-02-15T19:13:52.767Z,1.12
2018-02-15T19:16:18.540Z,1.13
2018-02-15T19:18:44.296Z,1.13
2018-02-15T19:21:10.071Z,1.12
2018-02-15T19:23:35.837Z,1.13
2018-02-15T19:26:01.607Z,1.16
2018-02-15T19:28:27.388Z,1.15
2018-02-15T19:30:53.166Z,1.17
2018-02-15T19:33:18.953Z,1.20
2018-02-15T19:35:44.750Z,1.21
2018-02-15T19:38:10.529Z,1.20
2018-02-15T19:40:36.306Z,1.20
2018-02-15T19:43:02.094Z,1.20
2018-02-15T19:45:27.853Z,1.25
2018-02-15T19:47:53.624Z,1.32
2018-02-15T19:50:19.406Z,1.33
2018-02-15T19:52:45.187Z,1.31
2018-02-15T19:55:10.951Z,1.29
2018-02-15T19:57:36.742Z,1.31
2018-02-15T20:00:02.520Z,1.30
2018-02-15T20:02:28.346Z,1.32
2018-02-15T20:04:54.134Z,1.28
2018-02-15T20:07:19.926Z,1.34
2018-02-15T20:09:45.683Z,1.33
2018-02-15T20:12:11.463Z,1.34
2018-02-15T20:14:37.241Z,1.35
2018-02-15T20:17:03.006Z,1.35
2018-02-15T20:19:28.781Z,1.36
2018-02-15T20:21:54.548Z,1.37
2018-02-15T20:24:20.318Z,1.40
2018-02-15T20:26:52.243Z,1.43
2018-02-15T20:29:18.069Z,1.42
2018-02-15T20:31:43.830Z,1.46
2018-02-15T20:34:09.616Z,1.46
2018-02-15T20:36:35.370Z,1.47
2018-02-15T20:39:07.338Z,1.52
2018-02-15T20:41:33.108Z,1.51
2018-02-15T20:43:58.884Z,1.58
2018-02-15T20:46:24.646Z,1.62
2018-02-15T20:48:50.427Z,1.63
2018-02-15T20:54:31.959Z,1.64
2018-02-15T20:56:57.727Z,1.67
2018-02-15T20:59:23.518Z,1.73
2018-02-15T21:01:49.286Z,1.69
2018-02-15T21:04:15.056Z,1.69
2018-02-15T21:06:40.830Z,1.72
2018-02-15T21:09:06.602Z,1.75
2018-02-15T21:11:32.346Z,1.78
2018-02-15T21:13:58.090Z,1.77
2018-02-15T21:16:23.846Z,1.82
2018-02-15T21:18:49.603Z,1.84
2018-02-15T21:21:15.391Z,1.85
2018-02-15T21:23:41.142Z,1.87
2018-02-15T21:26:06.907Z,1.96
2018-02-15T21:28:32.676Z,1.98
2018-02-15T21:30:58.430Z,2.03
2018-02-15T21:33:24.203Z,2.05
2018-02-15T21:35:49.966Z,2.09
2018-02-15T21:38:15.731Z,2.09
2018-02-15T21:40:41.506Z,2.11
2018-02-15T21:43:07.292Z,2.16
2018-02-15T21:45:33.072Z,2.36
2018-02-15T21:47:58.830Z,2.20
2018-02-15T21:50:24.623Z,2.18
2018-02-15T21:52:50.383Z,2.15
2018-02-15T21:55:16.167Z,2.19
2018-02-15T21:57:41.934Z,2.24
2018-02-15T22:00:07.735Z,2.26
2018-02-15T22:02:33.518Z,2.26
2018-02-15T22:04:59.285Z,2.30
2018-02-15T22:07:25.055Z,2.26
2018-02-15T22:09:50.844Z,2.28
2018-02-15T22:12:16.627Z,2.24
2018-02-15T22:14:42.390Z,2.36
2018-02-15T22:17:08.171Z,2.35
2018-02-15T22:19:33.931Z,2.34
2018-02-15T22:21:59.722Z,2.40
2018-02-15T22:24:25.478Z,2.42
2018-02-15T22:26:51.246Z,2.41
2018-02-15T22:29:17.023Z,2.40
2018-02-15T22:31:42.795Z,2.47
2018-02-15T22:34:08.555Z,2.54
2018-02-15T22:36:34.348Z,2.53
2018-02-15T22:39:00.100Z,2.50
2018-02-15T22:41:25.876Z,2.56
2018-02-15T22:43:51.647Z,2.57
2018-02-15T22:46:17.427Z,2.54
2018-02-15T22:48:43.201Z,2.58
2018-02-15T22:51:08.979Z,2.62
2018-02-15T22:53:34.747Z,2.62
2018-02-15T22:56:00.540Z,2.58
2018-02-15T22:58:26.314Z,2.56
2018-02-15T23:00:52.109Z,2.52
2018-02-15T23:03:17.872Z,2.50
2018-02-15T23:05:43.639Z,2.41
2018-02-15T23:08:09.413Z,2.44
2018-02-15T23:10:35.174Z,2.44
2018-02-15T23:13:00.958Z,2.45
2018-02-15T23:15:26.719Z,2.47
2018-02-15T23:17:52.486Z,2.45
2018-02-15T23:20:18.247Z,2.43
2018-02-15T23:22:44.027Z,2.47
2018-02-15T23:25:09.790Z,2.39
2018-02-15T23:27:35.563Z,2.30
2018-02-15T23:30:01.312Z,2.32
2018-02-15T23:32:27.079Z,2.34
2018-02-15T23:34:52.839Z,2.29
2018-02-15T23:37:18.606Z,2.19
2018-02-15T23:39:44.364Z,2.22
2018-02-15T23:42:10.128Z,2.16
2018-02-15T23:44:35.873Z,2.12
2018-02-15T23:47:01.644Z,2.07
2018-02-15T23:49:27.404Z,1.98
2018-02-15T23:51:53.166Z,1.98
2018-02-15T23:54:18.923Z,1.88
2018-02-15T23:56:44.693Z,1.93
2018-02-15T23:59:10.448Z,1.89
